sensor_id;sensor_type;location;lat;lon;timestamp;P1;durP1;ratioP1;P2;durP2;ratioP2
38123;SDS011;23934;47.998;9.832;2023-06-05T00:02:13;9.48;;;4.25;;
38123;SDS011;23934;47.998;9.832;2023-06-05T00:04:41;13.40;;;4.93;;
38123;SDS011;23934;47.998;9.832;2023-06-05T00:07:08;13.57;;;4.55;;
38123;SDS011;23934;47.998;9.832;2023-06-05T00:09:34;8.45;;;4.45;;
38123;SDS011;23934;47.998;9.832;2023-06-05T00:12:00;8.75;;;4.13;;
38123;SDS011;23934;47.998;9.832;2023-06-05T00:14:26;11.93;;;4.57;;
38123;SDS011;23934;47.998;9.832;2023-06-05T00:16:52;12.27;;;4.15;;
38123;SDS011;23934;47.998;9.832;2023-06-05T00:19:18;12.15;;;5.20;;
38123;SDS011;23934;47.998;9.832;2023-06-05T00:21:44;12.48;;;4.90;;
38123;SDS011;23934;47.998;9.832;2023-06-05T00:24:10;12.98;;;4.15;;
38123;SDS011;23934;47.998;9.832;2023-06-05T00:26:36;21.85;;;4.68;;
38123;SDS011;23934;47.998;9.832;2023-06-05T00:29:02;25.98;;;5.18;;
38123;SDS011;23934;47.998;9.832;2023-06-05T00:31:28;10.60;;;3.85;;
38123;SDS011;23934;47.998;9.832;2023-06-05T00:33:55;10.02;;;4.95;;
38123;SDS011;23934;47.998;9.832;2023-06-05T00:36:21;11.13;;;4.88;;
38123;SDS011;23934;47.998;9.832;2023-06-05T00:38:47;14.88;;;5.43;;
38123;SDS011;23934;47.998;9.832;2023-06-05T00:41:14;12.90;;;5.35;;
38123;SDS011;23934;47.998;9.832;2023-06-05T00:43:40;11.20;;;4.95;;
38123;SDS011;23934;47.998;9.832;2023-06-05T00:46:05;11.95;;;5.05;;
38123;SDS011;23934;47.998;9.832;2023-06-05T00:48:32;11.15;;;4.15;;
38123;SDS011;23934;47.998;9.832;2023-06-05T00:50:58;10.57;;;3.80;;
38123;SDS011;23934;47.998;9.832;2023-06-05T00:53:24;13.48;;;4.53;;
38123;SDS011;23934;47.998;9.832;2023-06-05T00:55:50;12.82;;;4.60;;
38123;SDS011;23934;47.998;9.832;2023-06-05T00:58:17;8.68;;;4.03;;
38123;SDS011;23934;47.998;9.832;2023-06-05T01:00:43;16.38;;;5.05;;
38123;SDS011;23934;47.998;9.832;2023-06-05T01:03:10;15.73;;;4.80;;
38123;SDS011;23934;47.998;9.832;2023-06-05T01:05:36;13.07;;;4.60;;
38123;SDS011;23934;47.998;9.832;2023-06-05T01:08:03;8.13;;;3.70;;
38123;SDS011;23934;47.998;9.832;2023-06-05T01:10:29;11.43;;;4.53;;
38123;SDS011;23934;47.998;9.832;2023-06-05T01:13:14;16.63;;;4.88;;
38123;SDS011;23934;47.998;9.832;2023-06-05T01:15:42;12.13;;;4.45;;
38123;SDS011;23934;47.998;9.832;2023-06-05T01:18:09;12.18;;;4.70;;
38123;SDS011;23934;47.998;9.832;2023-06-05T01:20:35;12.15;;;5.22;;
38123;SDS011;23934;47.998;9.832;2023-06-05T01:23:05;16.38;;;4.95;;
38123;SDS011;23934;47.998;9.832;2023-06-05T01:25:31;11.20;;;4.88;;
38123;SDS011;23934;47.998;9.832;2023-06-05T01:30:32;13.02;;;4.57;;
38123;SDS011;23934;47.998;9.832;2023-06-05T01:33:08;12.48;;;4.78;;
38123;SDS011;23934;47.998;9.832;2023-06-05T01:35:37;11.27;;;4.40;;
38123;SDS011;23934;47.998;9.832;2023-06-05T01:38:05;8.68;;;4.18;;
38123;SDS011;23934;47.998;9.832;2023-06-05T01:40:31;15.93;;;4.68;;
38123;SDS011;23934;47.998;9.832;2023-06-05T01:42:57;9.40;;;4.03;;
38123;SDS011;23934;47.998;9.832;2023-06-05T01:45:25;10.00;;;3.95;;
38123;SDS011;23934;47.998;9.832;2023-06-05T01:47:51;9.35;;;4.15;;
38123;SDS011;23934;47.998;9.832;2023-06-05T01:50:18;11.23;;;4.65;;
38123;SDS011;23934;47.998;9.832;2023-06-05T01:52:45;8.23;;;4.18;;
38123;SDS011;23934;47.998;9.832;2023-06-05T01:55:19;9.50;;;4.45;;
38123;SDS011;23934;47.998;9.832;2023-06-05T01:57:48;12.48;;;4.82;;
38123;SDS011;23934;47.998;9.832;2023-06-05T02:00:14;13.48;;;5.00;;
38123;SDS011;23934;47.998;9.832;2023-06-05T02:02:44;14.07;;;4.78;;
38123;SDS011;23934;47.998;9.832;2023-06-05T02:05:11;10.50;;;4.85;;
38123;SDS011;23934;47.998;9.832;2023-06-05T02:07:41;11.40;;;5.13;;
38123;SDS011;23934;47.998;9.832;2023-06-05T02:10:07;13.63;;;5.25;;
38123;SDS011;23934;47.998;9.832;2023-06-05T02:12:35;10.63;;;5.63;;
38123;SDS011;23934;47.998;9.832;2023-06-05T02:15:06;13.95;;;5.35;;
38123;SDS011;23934;47.998;9.832;2023-06-05T02:17:33;11.95;;;5.47;;
38123;SDS011;23934;47.998;9.832;2023-06-05T02:19:59;11.15;;;4.53;;
38123;SDS011;23934;47.998;9.832;2023-06-05T02:22:26;10.82;;;4.57;;
38123;SDS011;23934;47.998;9.832;2023-06-05T02:24:52;15.25;;;5.32;;
38123;SDS011;23934;47.998;9.832;2023-06-05T02:27:18;10.00;;;4.35;;
38123;SDS011;23934;47.998;9.832;2023-06-05T02:29:44;10.73;;;4.53;;
38123;SDS011;23934;47.998;9.832;2023-06-05T02:32:10;17.05;;;4.60;;
38123;SDS011;23934;47.998;9.832;2023-06-05T02:34:37;14.35;;;4.20;;
38123;SDS011;23934;47.998;9.832;2023-06-05T02:37:03;13.10;;;4.50;;
38123;SDS011;23934;47.998;9.832;2023-06-05T02:39:30;14.20;;;5.30;;
38123;SDS011;23934;47.998;9.832;2023-06-05T02:41:57;16.98;;;4.57;;
38123;SDS011;23934;47.998;9.832;2023-06-05T02:44:23;17.58;;;5.25;;
38123;SDS011;23934;47.998;9.832;2023-06-05T02:46:49;12.40;;;4.57;;
38123;SDS011;23934;47.998;9.832;2023-06-05T02:49:15;12.02;;;5.07;;
38123;SDS011;23934;47.998;9.832;2023-06-05T02:51:41;12.27;;;4.88;;
38123;SDS011;23934;47.998;9.832;2023-06-05T02:54:07;12.93;;;5.22;;
38123;SDS011;23934;47.998;9.832;2023-06-05T02:56:33;11.20;;;4.70;;
38123;SDS011;23934;47.998;9.832;2023-06-05T02:58:59;17.55;;;6.28;;
38123;SDS011;23934;47.998;9.832;2023-06-05T03:01:28;11.20;;;5.03;;
38123;SDS011;23934;47.998;9.832;2023-06-05T03:03:59;16.07;;;5.00;;
38123;SDS011;23934;47.998;9.832;2023-06-05T03:06:27;16.35;;;5.13;;
38123;SDS011;23934;47.998;9.832;2023-06-05T03:08:53;15.90;;;4.35;;
38123;SDS011;23934;47.998;9.832;2023-06-05T03:11:20;14.10;;;5.10;;
38123;SDS011;23934;47.998;9.832;2023-06-05T03:13:49;12.38;;;5.00;;
38123;SDS011;23934;47.998;9.832;2023-06-05T03:16:15;17.70;;;6.07;;
38123;SDS011;23934;47.998;9.832;2023-06-05T03:18:42;13.27;;;4.88;;
38123;SDS011;23934;47.998;9.832;2023-06-05T03:21:08;11.85;;;5.00;;
38123;SDS011;23934;47.998;9.832;2023-06-05T03:23:35;12.40;;;4.57;;
38123;SDS011;23934;47.998;9.832;2023-06-05T03:26:01;15.43;;;5.47;;
38123;SDS011;23934;47.998;9.832;2023-06-05T03:28:28;12.60;;;5.05;;
38123;SDS011;23934;47.998;9.832;2023-06-05T03:30:58;11.25;;;4.85;;
38123;SDS011;23934;47.998;9.832;2023-06-05T03:33:24;13.45;;;5.57;;
38123;SDS011;23934;47.998;9.832;2023-06-05T03:35:51;14.00;;;5.85;;
38123;SDS011;23934;47.998;9.832;2023-06-05T03:38:17;9.38;;;4.20;;
38123;SDS011;23934;47.998;9.832;2023-06-05T03:40:43;20.58;;;6.22;;
38123;SDS011;23934;47.998;9.832;2023-06-05T03:43:09;15.52;;;5.25;;
38123;SDS011;23934;47.998;9.832;2023-06-05T03:45:36;14.48;;;5.45;;
38123;SDS011;23934;47.998;9.832;2023-06-05T03:48:06;10.68;;;4.60;;
38123;SDS011;23934;47.998;9.832;2023-06-05T03:50:34;11.93;;;4.97;;
38123;SDS011;23934;47.998;9.832;2023-06-05T03:53:03;18.00;;;4.88;;
38123;SDS011;23934;47.998;9.832;2023-06-05T03:55:30;14.20;;;5.47;;
38123;SDS011;23934;47.998;9.832;2023-06-05T03:58:06;14.65;;;5.10;;
38123;SDS011;23934;47.998;9.832;2023-06-05T04:00:32;8.88;;;4.28;;
38123;SDS011;23934;47.998;9.832;2023-06-05T04:02:58;9.75;;;4.68;;
38123;SDS011;23934;47.998;9.832;2023-06-05T04:05:24;8.43;;;4.03;;
38123;SDS011;23934;47.998;9.832;2023-06-05T04:07:50;12.48;;;4.55;;
38123;SDS011;23934;47.998;9.832;2023-06-05T04:10:16;26.65;;;6.15;;
38123;SDS011;23934;47.998;9.832;2023-06-05T04:12:42;10.30;;;4.03;;
38123;SDS011;23934;47.998;9.832;2023-06-05T04:15:08;16.10;;;5.13;;
38123;SDS011;23934;47.998;9.832;2023-06-05T04:17:35;11.35;;;4.70;;
38123;SDS011;23934;47.998;9.832;2023-06-05T04:20:02;12.85;;;5.00;;
38123;SDS011;23934;47.998;9.832;2023-06-05T04:22:29;13.52;;;4.82;;
38123;SDS011;23934;47.998;9.832;2023-06-05T04:24:56;12.55;;;4.30;;
38123;SDS011;23934;47.998;9.832;2023-06-05T04:27:22;9.60;;;4.03;;
38123;SDS011;23934;47.998;9.832;2023-06-05T04:29:53;9.63;;;4.18;;
38123;SDS011;23934;47.998;9.832;2023-06-05T04:32:19;10.85;;;3.97;;
38123;SDS011;23934;47.998;9.832;2023-06-05T04:34:45;16.40;;;4.97;;
38123;SDS011;23934;47.998;9.832;2023-06-05T04:37:11;14.23;;;4.97;;
38123;SDS011;23934;47.998;9.832;2023-06-05T04:39:37;17.05;;;5.43;;
38123;SDS011;23934;47.998;9.832;2023-06-05T04:42:03;10.15;;;4.47;;
38123;SDS011;23934;47.998;9.832;2023-06-05T04:44:29;11.05;;;4.15;;
38123;SDS011;23934;47.998;9.832;2023-06-05T04:46:56;10.57;;;4.32;;
38123;SDS011;23934;47.998;9.832;2023-06-05T04:49:22;9.65;;;4.88;;
38123;SDS011;23934;47.998;9.832;2023-06-05T04:51:48;9.15;;;4.25;;
38123;SDS011;23934;47.998;9.832;2023-06-05T04:54:14;10.27;;;4.28;;
38123;SDS011;23934;47.998;9.832;2023-06-05T04:56:40;10.90;;;4.35;;
38123;SDS011;23934;47.998;9.832;2023-06-05T04:59:07;11.15;;;4.68;;
38123;SDS011;23934;47.998;9.832;2023-06-05T05:01:34;10.20;;;4.60;;
38123;SDS011;23934;47.998;9.832;2023-06-05T05:04:00;12.68;;;4.70;;
38123;SDS011;23934;47.998;9.832;2023-06-05T05:06:26;9.73;;;3.53;;
38123;SDS011;23934;47.998;9.832;2023-06-05T05:08:52;10.32;;;4.30;;
38123;SDS011;23934;47.998;9.832;2023-06-05T05:11:18;11.07;;;4.25;;
38123;SDS011;23934;47.998;9.832;2023-06-05T05:13:45;10.98;;;4.05;;
38123;SDS011;23934;47.998;9.832;2023-06-05T05:16:11;7.78;;;3.72;;
38123;SDS011;23934;47.998;9.832;2023-06-05T05:18:39;7.35;;;3.80;;
38123;SDS011;23934;47.998;9.832;2023-06-05T05:21:06;7.43;;;3.78;;
38123;SDS011;23934;47.998;9.832;2023-06-05T05:23:32;10.38;;;4.85;;
38123;SDS011;23934;47.998;9.832;2023-06-05T05:25:59;10.05;;;3.65;;
38123;SDS011;23934;47.998;9.832;2023-06-05T05:28:25;7.70;;;3.38;;
38123;SDS011;23934;47.998;9.832;2023-06-05T05:30:51;10.85;;;4.13;;
38123;SDS011;23934;47.998;9.832;2023-06-05T05:33:17;12.77;;;4.88;;
38123;SDS011;23934;47.998;9.832;2023-06-05T05:35:44;9.20;;;3.85;;
38123;SDS011;23934;47.998;9.832;2023-06-05T05:38:10;9.63;;;4.60;;
38123;SDS011;23934;47.998;9.832;2023-06-05T05:40:36;11.57;;;4.00;;
38123;SDS011;23934;47.998;9.832;2023-06-05T05:43:02;8.85;;;3.83;;
38123;SDS011;23934;47.998;9.832;2023-06-05T05:45:28;7.07;;;3.67;;
38123;SDS011;23934;47.998;9.832;2023-06-05T05:47:53;9.23;;;4.07;;
38123;SDS011;23934;47.998;9.832;2023-06-05T05:50:19;7.03;;;3.70;;
38123;SDS011;23934;47.998;9.832;2023-06-05T05:52:45;9.80;;;4.15;;
38123;SDS011;23934;47.998;9.832;2023-06-05T05:55:12;10.95;;;4.43;;
38123;SDS011;23934;47.998;9.832;2023-06-05T05:57:38;10.25;;;4.18;;
38123;SDS011;23934;47.998;9.832;2023-06-05T06:00:05;11.55;;;3.92;;
38123;SDS011;23934;47.998;9.832;2023-06-05T06:02:37;8.45;;;3.85;;
38123;SDS011;23934;47.998;9.832;2023-06-05T06:05:04;7.13;;;4.00;;
38123;SDS011;23934;47.998;9.832;2023-06-05T06:07:30;12.93;;;4.10;;
38123;SDS011;23934;47.998;9.832;2023-06-05T06:09:56;9.10;;;4.43;;
38123;SDS011;23934;47.998;9.832;2023-06-05T06:12:23;16.83;;;4.40;;
38123;SDS011;23934;47.998;9.832;2023-06-05T06:14:49;8.80;;;4.10;;
38123;SDS011;23934;47.998;9.832;2023-06-05T06:17:15;10.57;;;4.05;;
38123;SDS011;23934;47.998;9.832;2023-06-05T06:19:42;13.60;;;4.95;;
38123;SDS011;23934;47.998;9.832;2023-06-05T06:22:08;13.52;;;5.22;;
38123;SDS011;23934;47.998;9.832;2023-06-05T06:24:41;13.18;;;5.50;;
38123;SDS011;23934;47.998;9.832;2023-06-05T06:27:07;11.85;;;4.97;;
38123;SDS011;23934;47.998;9.832;2023-06-05T06:29:36;18.10;;;5.80;;
38123;SDS011;23934;47.998;9.832;2023-06-05T06:32:02;12.38;;;5.28;;
38123;SDS011;23934;47.998;9.832;2023-06-05T06:34:28;11.40;;;5.00;;
38123;SDS011;23934;47.998;9.832;2023-06-05T06:36:54;11.68;;;5.60;;
38123;SDS011;23934;47.998;9.832;2023-06-05T06:39:21;8.30;;;4.65;;
38123;SDS011;23934;47.998;9.832;2023-06-05T06:41:49;8.95;;;4.95;;
38123;SDS011;23934;47.998;9.832;2023-06-05T06:44:18;10.48;;;5.55;;
38123;SDS011;23934;47.998;9.832;2023-06-05T06:46:44;19.63;;;5.47;;
38123;SDS011;23934;47.998;9.832;2023-06-05T06:49:10;13.93;;;6.13;;
38123;SDS011;23934;47.998;9.832;2023-06-05T06:51:36;10.52;;;6.00;;
38123;SDS011;23934;47.998;9.832;2023-06-05T06:54:02;11.68;;;6.40;;
38123;SDS011;23934;47.998;9.832;2023-06-05T06:56:28;10.05;;;5.68;;
38123;SDS011;23934;47.998;9.832;2023-06-05T06:58:55;17.95;;;5.88;;
38123;SDS011;23934;47.998;9.832;2023-06-05T07:01:21;13.52;;;6.32;;
38123;SDS011;23934;47.998;9.832;2023-06-05T07:03:48;17.88;;;6.47;;
38123;SDS011;23934;47.998;9.832;2023-06-05T07:06:14;12.45;;;5.93;;
38123;SDS011;23934;47.998;9.832;2023-06-05T07:08:41;12.02;;;6.05;;
38123;SDS011;23934;47.998;9.832;2023-06-05T07:11:07;15.60;;;6.43;;
38123;SDS011;23934;47.998;9.832;2023-06-05T07:13:33;12.68;;;6.25;;
38123;SDS011;23934;47.998;9.832;2023-06-05T07:15:59;12.20;;;5.75;;
38123;SDS011;23934;47.998;9.832;2023-06-05T07:18:25;13.50;;;6.68;;
38123;SDS011;23934;47.998;9.832;2023-06-05T07:20:51;15.85;;;6.28;;
38123;SDS011;23934;47.998;9.832;2023-06-05T07:23:17;12.70;;;6.20;;
38123;SDS011;23934;47.998;9.832;2023-06-05T07:25:44;10.95;;;6.75;;
38123;SDS011;23934;47.998;9.832;2023-06-05T07:28:10;13.30;;;6.25;;
38123;SDS011;23934;47.998;9.832;2023-06-05T07:30:37;13.18;;;6.07;;
38123;SDS011;23934;47.998;9.832;2023-06-05T07:33:03;13.27;;;6.60;;
38123;SDS011;23934;47.998;9.832;2023-06-05T07:35:30;12.32;;;6.50;;
38123;SDS011;23934;47.998;9.832;2023-06-05T07:37:56;15.43;;;7.25;;
38123;SDS011;23934;47.998;9.832;2023-06-05T07:40:22;15.75;;;7.60;;
38123;SDS011;23934;47.998;9.832;2023-06-05T07:42:48;20.30;;;7.03;;
38123;SDS011;23934;47.998;9.832;2023-06-05T07:45:14;13.85;;;7.25;;
38123;SDS011;23934;47.998;9.832;2023-06-05T07:47:39;11.65;;;6.80;;
38123;SDS011;23934;47.998;9.832;2023-06-05T07:50:06;14.45;;;6.88;;
38123;SDS011;23934;47.998;9.832;2023-06-05T07:52:32;11.95;;;6.95;;
38123;SDS011;23934;47.998;9.832;2023-06-05T07:54:58;12.80;;;6.47;;
38123;SDS011;23934;47.998;9.832;2023-06-05T07:57:24;11.98;;;6.22;;
38123;SDS011;23934;47.998;9.832;2023-06-05T07:59:50;10.70;;;6.03;;
38123;SDS011;23934;47.998;9.832;2023-06-05T08:02:19;13.63;;;7.07;;
38123;SDS011;23934;47.998;9.832;2023-06-05T08:04:45;17.55;;;7.57;;
38123;SDS011;23934;47.998;9.832;2023-06-05T08:07:11;16.30;;;6.65;;
38123;SDS011;23934;47.998;9.832;2023-06-05T08:09:37;18.70;;;6.68;;
38123;SDS011;23934;47.998;9.832;2023-06-05T08:12:04;13.38;;;6.40;;
38123;SDS011;23934;47.998;9.832;2023-06-05T08:14:30;13.70;;;6.55;;
38123;SDS011;23934;47.998;9.832;2023-06-05T08:16:56;11.98;;;6.07;;
38123;SDS011;23934;47.998;9.832;2023-06-05T08:19:22;13.13;;;6.70;;
38123;SDS011;23934;47.998;9.832;2023-06-05T08:21:50;16.40;;;6.63;;
38123;SDS011;23934;47.998;9.832;2023-06-05T08:24:17;12.73;;;6.50;;
38123;SDS011;23934;47.998;9.832;2023-06-05T08:26:43;11.38;;;6.43;;
38123;SDS011;23934;47.998;9.832;2023-06-05T08:29:08;10.52;;;5.88;;
38123;SDS011;23934;47.998;9.832;2023-06-05T08:31:37;14.90;;;7.05;;
38123;SDS011;23934;47.998;9.832;2023-06-05T08:34:03;10.48;;;6.60;;
38123;SDS011;23934;47.998;9.832;2023-06-05T08:36:29;17.55;;;6.60;;
38123;SDS011;23934;47.998;9.832;2023-06-05T08:38:57;10.73;;;6.55;;
38123;SDS011;23934;47.998;9.832;2023-06-05T08:41:23;17.15;;;6.82;;
38123;SDS011;23934;47.998;9.832;2023-06-05T08:43:50;13.25;;;6.63;;
38123;SDS011;23934;47.998;9.832;2023-06-05T08:46:17;11.70;;;6.53;;
38123;SDS011;23934;47.998;9.832;2023-06-05T08:48:44;10.88;;;6.00;;
38123;SDS011;23934;47.998;9.832;2023-06-05T08:51:10;9.55;;;5.80;;
38123;SDS011;23934;47.998;9.832;2023-06-05T08:53:37;10.57;;;6.28;;
38123;SDS011;23934;47.998;9.832;2023-06-05T08:56:04;10.52;;;6.22;;
38123;SDS011;23934;47.998;9.832;2023-06-05T08:58:31;15.05;;;5.50;;
38123;SDS011;23934;47.998;9.832;2023-06-05T09:00:58;11.00;;;5.53;;
38123;SDS011;23934;47.998;9.832;2023-06-05T09:03:24;10.73;;;6.55;;
38123;SDS011;23934;47.998;9.832;2023-06-05T09:05:51;10.30;;;5.78;;
38123;SDS011;23934;47.998;9.832;2023-06-05T09:08:17;12.77;;;6.13;;
38123;SDS011;23934;47.998;9.832;2023-06-05T09:10:45;13.30;;;6.38;;
38123;SDS011;23934;47.998;9.832;2023-06-05T09:13:11;8.70;;;5.75;;
38123;SDS011;23934;47.998;9.832;2023-06-05T09:15:37;12.05;;;6.53;;
38123;SDS011;23934;47.998;9.832;2023-06-05T09:20:33;7.97;;;5.43;;
38123;SDS011;23934;47.998;9.832;2023-06-05T09:23:03;8.32;;;5.45;;
38123;SDS011;23934;47.998;9.832;2023-06-05T09:26:04;8.15;;;5.28;;
38123;SDS011;23934;47.998;9.832;2023-06-05T09:28:23;8.23;;;5.22;;
38123;SDS011;23934;47.998;9.832;2023-06-05T09:31:00;12.60;;;6.50;;
38123;SDS011;23934;47.998;9.832;2023-06-05T09:33:29;7.50;;;4.97;;
38123;SDS011;23934;47.998;9.832;2023-06-05T09:36:09;10.10;;;5.18;;
38123;SDS011;23934;47.998;9.832;2023-06-05T09:38:36;8.82;;;5.22;;
38123;SDS011;23934;47.998;9.832;2023-06-05T09:41:06;8.98;;;5.10;;
38123;SDS011;23934;47.998;9.832;2023-06-05T09:43:33;13.02;;;4.95;;
38123;SDS011;23934;47.998;9.832;2023-06-05T09:45:59;9.32;;;5.57;;
38123;SDS011;23934;47.998;9.832;2023-06-05T09:48:31;12.43;;;5.43;;
38123;SDS011;23934;47.998;9.832;2023-06-05T09:51:07;6.65;;;4.75;;
38123;SDS011;23934;47.998;9.832;2023-06-05T09:53:33;8.93;;;5.00;;
38123;SDS011;23934;47.998;9.832;2023-06-05T09:56:00;8.63;;;4.93;;
38123;SDS011;23934;47.998;9.832;2023-06-05T09:58:27;9.00;;;5.32;;
38123;SDS011;23934;47.998;9.832;2023-06-05T10:00:53;8.32;;;4.78;;
38123;SDS011;23934;47.998;9.832;2023-06-05T10:03:25;10.73;;;4.68;;
38123;SDS011;23934;47.998;9.832;2023-06-05T10:05:51;10.02;;;4.55;;
38123;SDS011;23934;47.998;9.832;2023-06-05T10:08:17;9.10;;;5.13;;
38123;SDS011;23934;47.998;9.832;2023-06-05T10:10:43;8.85;;;4.78;;
38123;SDS011;23934;47.998;9.832;2023-06-05T10:13:09;11.13;;;5.28;;
38123;SDS011;23934;47.998;9.832;2023-06-05T10:15:36;7.20;;;4.57;;
38123;SDS011;23934;47.998;9.832;2023-06-05T10:18:03;9.18;;;5.40;;
38123;SDS011;23934;47.998;9.832;2023-06-05T10:20:30;8.93;;;4.90;;
38123;SDS011;23934;47.998;9.832;2023-06-05T10:22:56;8.10;;;4.70;;
38123;SDS011;23934;47.998;9.832;2023-06-05T10:25:22;13.70;;;5.80;;
38123;SDS011;23934;47.998;9.832;2023-06-05T10:27:52;9.13;;;5.53;;
38123;SDS011;23934;47.998;9.832;2023-06-05T10:38:06;19.80;;;6.13;;
38123;SDS011;23934;47.998;9.832;2023-06-05T10:40:37;12.50;;;4.60;;
38123;SDS011;23934;47.998;9.832;2023-06-05T10:45:47;10.20;;;4.82;;
38123;SDS011;23934;47.998;9.832;2023-06-05T10:48:13;8.50;;;4.70;;
38123;SDS011;23934;47.998;9.832;2023-06-05T10:50:41;7.03;;;5.15;;
38123;SDS011;23934;47.998;9.832;2023-06-05T10:53:07;10.38;;;4.90;;
38123;SDS011;23934;47.998;9.832;2023-06-05T10:55:53;10.05;;;5.63;;
38123;SDS011;23934;47.998;9.832;2023-06-05T10:58:19;7.93;;;4.65;;
38123;SDS011;23934;47.998;9.832;2023-06-05T11:01:14;18.55;;;4.95;;
38123;SDS011;23934;47.998;9.832;2023-06-05T11:03:53;16.75;;;5.32;;
38123;SDS011;23934;47.998;9.832;2023-06-05T11:06:19;10.35;;;5.25;;
38123;SDS011;23934;47.998;9.832;2023-06-05T11:09:05;10.10;;;4.78;;
38123;SDS011;23934;47.998;9.832;2023-06-05T11:11:55;11.15;;;5.40;;
38123;SDS011;23934;47.998;9.832;2023-06-05T11:14:20;9.65;;;4.68;;
38123;SDS011;23934;47.998;9.832;2023-06-05T11:16:46;9.00;;;4.65;;
38123;SDS011;23934;47.998;9.832;2023-06-05T11:24:26;12.32;;;5.28;;
38123;SDS011;23934;47.998;9.832;2023-06-05T11:26:51;10.50;;;5.53;;
38123;SDS011;23934;47.998;9.832;2023-06-05T11:29:17;7.63;;;4.75;;
38123;SDS011;23934;47.998;9.832;2023-06-05T11:31:44;77.50;;;7.68;;
38123;SDS011;23934;47.998;9.832;2023-06-05T11:34:13;12.25;;;4.78;;
38123;SDS011;23934;47.998;9.832;2023-06-05T11:36:39;11.77;;;4.75;;
38123;SDS011;23934;47.998;9.832;2023-06-05T11:39:05;10.68;;;4.60;;
38123;SDS011;23934;47.998;9.832;2023-06-05T11:41:33;9.32;;;4.43;;
38123;SDS011;23934;47.998;9.832;2023-06-05T11:43:59;13.38;;;5.10;;
38123;SDS011;23934;47.998;9.832;2023-06-05T11:46:38;9.23;;;4.45;;
38123;SDS011;23934;47.998;9.832;2023-06-05T11:49:04;10.25;;;4.57;;
38123;SDS011;23934;47.998;9.832;2023-06-05T11:51:34;11.05;;;4.72;;
38123;SDS011;23934;47.998;9.832;2023-06-05T11:54:00;7.47;;;4.25;;
38123;SDS011;23934;47.998;9.832;2023-06-05T11:56:26;8.48;;;4.35;;
38123;SDS011;23934;47.998;9.832;2023-06-05T11:58:54;7.63;;;4.95;;
38123;SDS011;23934;47.998;9.832;2023-06-05T12:01:20;7.95;;;4.95;;
38123;SDS011;23934;47.998;9.832;2023-06-05T12:03:47;8.68;;;4.50;;
38123;SDS011;23934;47.998;9.832;2023-06-05T12:06:13;10.27;;;5.45;;
38123;SDS011;23934;47.998;9.832;2023-06-05T12:08:41;8.23;;;4.68;;
38123;SDS011;23934;47.998;9.832;2023-06-05T12:11:20;11.95;;;4.78;;
38123;SDS011;23934;47.998;9.832;2023-06-05T12:13:53;8.13;;;4.68;;
38123;SDS011;23934;47.998;9.832;2023-06-05T12:16:20;8.13;;;4.25;;
38123;SDS011;23934;47.998;9.832;2023-06-05T12:18:46;12.23;;;5.13;;
38123;SDS011;23934;47.998;9.832;2023-06-05T12:21:21;9.07;;;4.45;;
38123;SDS011;23934;47.998;9.832;2023-06-05T12:23:47;8.52;;;4.22;;
38123;SDS011;23934;47.998;9.832;2023-06-05T12:26:14;11.55;;;4.60;;
38123;SDS011;23934;47.998;9.832;2023-06-05T12:28:44;7.65;;;4.20;;
38123;SDS011;23934;47.998;9.832;2023-06-05T12:31:31;8.18;;;4.47;;
38123;SDS011;23934;47.998;9.832;2023-06-05T12:33:57;10.30;;;4.57;;
38123;SDS011;23934;47.998;9.832;2023-06-05T12:36:23;9.85;;;4.93;;
38123;SDS011;23934;47.998;9.832;2023-06-05T12:38:49;8.38;;;4.50;;
38123;SDS011;23934;47.998;9.832;2023-06-05T12:41:15;8.75;;;4.70;;
38123;SDS011;23934;47.998;9.832;2023-06-05T12:43:41;8.07;;;4.28;;
38123;SDS011;23934;47.998;9.832;2023-06-05T12:46:07;10.73;;;4.40;;
38123;SDS011;23934;47.998;9.832;2023-06-05T12:48:33;8.23;;;4.20;;
38123;SDS011;23934;47.998;9.832;2023-06-05T12:51:00;7.25;;;4.15;;
38123;SDS011;23934;47.998;9.832;2023-06-05T12:53:26;7.80;;;4.45;;
38123;SDS011;23934;47.998;9.832;2023-06-05T12:55:52;8.02;;;4.40;;
38123;SDS011;23934;47.998;9.832;2023-06-05T12:58:18;7.20;;;4.10;;
38123;SDS011;23934;47.998;9.832;2023-06-05T13:00:44;11.30;;;4.93;;
38123;SDS011;23934;47.998;9.832;2023-06-05T13:03:10;6.97;;;4.28;;
38123;SDS011;23934;47.998;9.832;2023-06-05T13:05:37;8.82;;;4.75;;
38123;SDS011;23934;47.998;9.832;2023-06-05T13:08:03;7.68;;;4.03;;
38123;SDS011;23934;47.998;9.832;2023-06-05T13:10:29;8.63;;;4.97;;
38123;SDS011;23934;47.998;9.832;2023-06-05T13:12:55;9.48;;;4.50;;
38123;SDS011;23934;47.998;9.832;2023-06-05T13:15:21;8.73;;;5.00;;
38123;SDS011;23934;47.998;9.832;2023-06-05T13:17:47;8.15;;;4.07;;
38123;SDS011;23934;47.998;9.832;2023-06-05T13:20:14;9.05;;;4.22;;
38123;SDS011;23934;47.998;9.832;2023-06-05T13:22:40;7.72;;;4.38;;
38123;SDS011;23934;47.998;9.832;2023-06-05T13:25:07;7.38;;;3.97;;
38123;SDS011;23934;47.998;9.832;2023-06-05T13:27:33;9.73;;;4.55;;
38123;SDS011;23934;47.998;9.832;2023-06-05T13:29:59;9.02;;;4.72;;
38123;SDS011;23934;47.998;9.832;2023-06-05T13:32:25;7.55;;;4.07;;
38123;SDS011;23934;47.998;9.832;2023-06-05T13:34:51;12.55;;;5.13;;
38123;SDS011;23934;47.998;9.832;2023-06-05T13:37:18;7.47;;;4.15;;
38123;SDS011;23934;47.998;9.832;2023-06-05T13:39:44;9.93;;;4.75;;
38123;SDS011;23934;47.998;9.832;2023-06-05T13:42:11;9.73;;;4.18;;
38123;SDS011;23934;47.998;9.832;2023-06-05T13:44:37;9.55;;;4.47;;
38123;SDS011;23934;47.998;9.832;2023-06-05T13:47:03;8.63;;;4.55;;
38123;SDS011;23934;47.998;9.832;2023-06-05T13:49:30;7.97;;;4.93;;
38123;SDS011;23934;47.998;9.832;2023-06-05T13:51:56;9.23;;;4.32;;
38123;SDS011;23934;47.998;9.832;2023-06-05T13:54:22;10.05;;;4.63;;
38123;SDS011;23934;47.998;9.832;2023-06-05T13:56:48;12.23;;;4.47;;
38123;SDS011;23934;47.998;9.832;2023-06-05T13:59:16;8.77;;;4.70;;
38123;SDS011;23934;47.998;9.832;2023-06-05T14:01:42;9.95;;;4.35;;
38123;SDS011;23934;47.998;9.832;2023-06-05T14:04:08;6.93;;;3.97;;
38123;SDS011;23934;47.998;9.832;2023-06-05T14:06:34;9.30;;;3.97;;
38123;SDS011;23934;47.998;9.832;2023-06-05T14:09:05;7.80;;;4.40;;
38123;SDS011;23934;47.998;9.832;2023-06-05T14:11:31;9.38;;;3.63;;
38123;SDS011;23934;47.998;9.832;2023-06-05T14:13:57;6.72;;;3.80;;
38123;SDS011;23934;47.998;9.832;2023-06-05T14:16:24;8.73;;;4.30;;
38123;SDS011;23934;47.998;9.832;2023-06-05T14:18:50;13.27;;;4.45;;
38123;SDS011;23934;47.998;9.832;2023-06-05T14:21:16;8.25;;;4.03;;
38123;SDS011;23934;47.998;9.832;2023-06-05T14:23:42;7.35;;;4.13;;
38123;SDS011;23934;47.998;9.832;2023-06-05T14:26:08;9.02;;;4.10;;
38123;SDS011;23934;47.998;9.832;2023-06-05T14:28:35;5.70;;;3.55;;
38123;SDS011;23934;47.998;9.832;2023-06-05T14:31:02;7.15;;;4.22;;
38123;SDS011;23934;47.998;9.832;2023-06-05T14:33:28;7.25;;;4.32;;
38123;SDS011;23934;47.998;9.832;2023-06-05T14:35:54;8.60;;;4.30;;
38123;SDS011;23934;47.998;9.832;2023-06-05T14:38:20;5.85;;;3.65;;
38123;SDS011;23934;47.998;9.832;2023-06-05T14:40:46;17.15;;;4.38;;
38123;SDS011;23934;47.998;9.832;2023-06-05T14:43:15;15.27;;;3.92;;
38123;SDS011;23934;47.998;9.832;2023-06-05T14:45:41;8.40;;;4.40;;
38123;SDS011;23934;47.998;9.832;2023-06-05T14:48:07;9.25;;;4.28;;
38123;SDS011;23934;47.998;9.832;2023-06-05T14:50:36;8.68;;;4.60;;
38123;SDS011;23934;47.998;9.832;2023-06-05T14:53:02;7.78;;;4.20;;
38123;SDS011;23934;47.998;9.832;2023-06-05T14:55:28;9.30;;;3.90;;
38123;SDS011;23934;47.998;9.832;2023-06-05T14:57:54;7.68;;;3.90;;
38123;SDS011;23934;47.998;9.832;2023-06-05T15:00:20;11.48;;;4.75;;